createdAt,value
2019-01-20T00:00:57.176Z,22.07
2019-01-20T00:03:24.254Z,21.10
2019-01-20T00:05:51.340Z,20.90
2019-01-20T00:08:19.538Z,21.83
2019-01-20T00:10:46.703Z,22.87
2019-01-20T00:13:13.898Z,20.10
2019-01-20T00:15:41.915Z,21.87
2019-01-20T00:18:09.088Z,21.57
2019-01-20T00:20:36.658Z,21.20
2019-01-20T00:23:03.804Z,21.57
2019-01-20T00:25:33.243Z,20.93
2019-01-20T00:28:00.577Z,22.87
2019-01-20T00:30:27.742Z,20.63
2019-01-20T00:32:55.122Z,20.23
2019-01-20T00:35:22.131Z,21.80
2019-01-20T00:37:49.825Z,21.87
2019-01-20T00:40:17.042Z,21.07
2019-01-20T00:42:44.267Z,20.53
2019-01-20T00:45:13.523Z,21.60
2019-01-20T00:47:40.541Z,22.00
2019-01-20T00:50:09.662Z,22.13
2019-01-20T00:52:36.843Z,22.10
2019-01-20T00:55:05.451Z,22.97
2019-01-20T00:57:32.622Z,22.40
2019-01-20T00:59:59.842Z,22.87
2019-01-20T01:02:27.101Z,22.30
2019-01-20T01:04:54.465Z,22.43
2019-01-20T01:07:21.799Z,22.87
2019-01-20T01:09:48.875Z,23.03
2019-01-20T01:12:17.406Z,22.70
2019-01-20T01:14:44.626Z,23.80
2019-01-20T01:17:12.171Z,25.23
2019-01-20T01:19:39.355Z,23.10
2019-01-20T01:22:06.623Z,24.60
2019-01-20T01:24:33.707Z,24.00
2019-01-20T01:27:00.658Z,26.40
2019-01-20T01:29:28.327Z,24.20
2019-01-20T01:31:55.468Z,25.57
2019-01-20T01:34:22.859Z,25.97
2019-01-20T01:36:49.822Z,24.30
2019-01-20T01:39:17.039Z,25.87
2019-01-20T01:41:44.100Z,23.67
2019-01-20T01:44:11.460Z,23.97
2019-01-20T01:46:38.465Z,24.17
2019-01-20T01:49:05.771Z,25.63
2019-01-20T01:51:32.893Z,24.80
2019-01-20T01:54:00.027Z,23.97
2019-01-20T01:56:27.072Z,24.30
2019-01-20T01:58:55.255Z,23.07
2019-01-20T02:01:22.346Z,25.80
2019-01-20T02:03:49.338Z,23.00
2019-01-20T02:06:16.679Z,24.20
2019-01-20T02:08:43.806Z,22.87
2019-01-20T02:11:11.040Z,22.93
2019-01-20T02:13:38.779Z,23.10
2019-01-20T02:16:06.010Z,23.40
2019-01-20T02:18:33.156Z,24.17
2019-01-20T02:21:00.875Z,23.73
2019-01-20T02:23:27.897Z,24.63
2019-01-20T02:25:54.948Z,24.30
2019-01-20T02:28:21.926Z,24.50
2019-01-20T02:30:49.014Z,24.80
2019-01-20T02:33:16.391Z,25.23
2019-01-20T02:35:43.385Z,24.93
2019-01-20T02:38:10.412Z,27.40
2019-01-20T02:40:37.396Z,26.20
2019-01-20T02:43:17.519Z,25.13
2019-01-20T02:45:44.844Z,25.97
2019-01-20T02:48:11.894Z,26.67
2019-01-20T02:50:39.094Z,26.40
2019-01-20T02:53:06.467Z,26.47
2019-01-20T02:55:33.558Z,27.47
2019-01-20T02:58:02.019Z,27.03
2019-01-20T03:00:29.390Z,27.10
2019-01-20T03:02:57.373Z,28.07
2019-01-20T03:05:24.633Z,25.63
2019-01-20T03:07:51.595Z,25.73
2019-01-20T03:10:18.742Z,27.43
2019-01-20T03:12:46.024Z,27.43
2019-01-20T03:15:13.568Z,26.43
2019-01-20T03:17:40.623Z,27.10
2019-01-20T03:20:10.956Z,27.90
2019-01-20T03:22:39.074Z,26.10
2019-01-20T03:25:08.442Z,26.87
2019-01-20T03:27:35.435Z,25.43
2019-01-20T03:30:04.256Z,25.83
2019-01-20T03:32:32.268Z,26.73
2019-01-20T03:34:59.427Z,24.37
2019-01-20T03:37:26.756Z,27.13
2019-01-20T03:39:53.922Z,26.47
2019-01-20T03:42:21.352Z,27.43
2019-01-20T03:44:48.329Z,26.60
2019-01-20T03:47:15.643Z,26.97
2019-01-20T03:49:43.355Z,26.13
2019-01-20T03:52:10.427Z,26.57
2019-01-20T03:54:37.501Z,26.40
2019-01-20T03:57:23.546Z,27.90
2019-01-20T03:59:50.716Z,27.37
2019-01-20T04:02:19.728Z,28.73
2019-01-20T04:04:46.818Z,27.47
2019-01-20T04:07:14.035Z,28.40
2019-01-20T04:09:41.386Z,27.80
2019-01-20T04:12:08.646Z,29.20
2019-01-20T04:14:35.711Z,28.10
2019-01-20T04:17:02.920Z,29.67
2019-01-20T04:19:30.132Z,27.77
2019-01-20T04:21:57.143Z,27.70
2019-01-20T04:24:24.391Z,29.20
2019-01-20T04:26:51.379Z,28.07
2019-01-20T04:29:19.113Z,27.77
2019-01-20T04:31:46.294Z,29.90
2019-01-20T04:34:13.294Z,29.27
2019-01-20T04:36:40.382Z,28.30
2019-01-20T04:39:07.360Z,29.63
2019-01-20T04:41:34.927Z,30.10
2019-01-20T04:44:01.896Z,28.73
2019-01-20T04:46:28.955Z,28.27
2019-01-20T04:48:56.061Z,27.20
2019-01-20T04:51:23.050Z,28.20
2019-01-20T04:53:50.475Z,29.03
2019-01-20T04:56:17.881Z,27.50
2019-01-20T04:58:44.892Z,27.70
2019-01-20T05:01:12.331Z,29.53
2019-01-20T05:03:39.423Z,27.40
2019-01-20T05:06:06.597Z,29.43
2019-01-20T05:08:33.713Z,29.63
2019-01-20T05:11:00.693Z,27.70
2019-01-20T05:13:27.763Z,29.23
2019-01-20T05:15:54.862Z,26.93
2019-01-20T05:18:21.983Z,28.70
2019-01-20T05:20:49.165Z,27.20
2019-01-20T05:23:16.170Z,27.03
2019-01-20T05:25:43.415Z,27.23
2019-01-20T05:28:10.491Z,27.73
2019-01-20T05:30:38.490Z,28.07
2019-01-20T05:33:05.930Z,27.57
2019-01-20T05:35:33.295Z,27.30
2019-01-20T05:38:00.339Z,28.10
2019-01-20T05:40:28.186Z,30.10
2019-01-20T05:42:55.440Z,26.60
2019-01-20T05:45:25.038Z,27.83
2019-01-20T05:47:52.555Z,27.93
2019-01-20T05:50:19.872Z,26.80
2019-01-20T05:52:46.825Z,26.43
2019-01-20T05:55:14.701Z,27.70
2019-01-20T05:57:42.083Z,27.87
2019-01-20T06:00:17.573Z,26.77
2019-01-20T06:02:44.742Z,28.57
2019-01-20T06:05:12.290Z,25.40
2019-01-20T06:07:39.389Z,27.40
2019-01-20T06:10:08.323Z,27.47
2019-01-20T06:12:35.878Z,28.60
2019-01-20T06:15:03.972Z,27.67
2019-01-20T06:17:31.004Z,27.43
2019-01-20T06:19:58.193Z,25.67
2019-01-20T06:22:25.536Z,25.90
2019-01-20T06:24:52.667Z,26.90
2019-01-20T06:27:20.011Z,27.27
2019-01-20T06:29:46.994Z,24.13
2019-01-20T06:32:13.990Z,26.77
2019-01-20T06:34:41.068Z,25.20
2019-01-20T06:37:08.045Z,25.43
2019-01-20T06:39:37.387Z,24.73
2019-01-20T06:42:04.407Z,24.87
2019-01-20T06:44:31.366Z,26.27
2019-01-20T06:46:58.471Z,25.73
2019-01-20T06:49:25.801Z,26.37
2019-01-20T06:51:52.779Z,25.83
2019-01-20T06:54:19.890Z,25.70
2019-01-20T06:56:47.249Z,25.97
2019-01-20T06:59:14.570Z,25.20
2019-01-20T07:01:41.729Z,25.10
2019-01-20T07:04:08.780Z,25.47
2019-01-20T07:06:35.775Z,25.43
2019-01-20T07:09:05.939Z,25.67
2019-01-20T07:11:32.936Z,25.63
2019-01-20T07:14:00.443Z,25.33
2019-01-20T07:16:27.443Z,25.83
2019-01-20T07:18:56.384Z,26.90
2019-01-20T07:21:23.359Z,25.90
2019-01-20T07:23:50.832Z,26.63
2019-01-20T07:26:17.798Z,26.77
2019-01-20T07:28:44.787Z,26.93
2019-01-20T07:31:11.820Z,26.53
2019-01-20T07:33:38.895Z,25.23
2019-01-20T07:36:06.029Z,26.53
2019-01-20T07:38:33.137Z,25.83
2019-01-20T07:41:00.500Z,26.83
2019-01-20T07:43:27.494Z,27.43
2019-01-20T07:45:54.669Z,25.27
2019-01-20T07:48:22.644Z,25.80
2019-01-20T07:50:49.697Z,24.73
2019-01-20T07:53:16.803Z,26.27
2019-01-20T07:55:43.890Z,27.50
2019-01-20T07:58:11.054Z,28.03
2019-01-20T08:00:38.190Z,28.57
2019-01-20T08:03:05.246Z,27.77
2019-01-20T08:05:32.453Z,27.93
2019-01-20T08:07:59.959Z,27.77
2019-01-20T08:10:28.700Z,28.97
2019-01-20T08:12:56.004Z,28.53
2019-01-20T08:15:23.755Z,28.33
2019-01-20T08:17:51.110Z,29.47
2019-01-20T08:20:18.742Z,28.47
2019-01-20T08:22:46.064Z,30.13
2019-01-20T08:25:14.927Z,28.10
2019-01-20T08:27:42.686Z,29.20
2019-01-20T08:30:13.416Z,27.97
2019-01-20T08:32:40.455Z,28.93
2019-01-20T08:35:08.525Z,29.43
2019-01-20T08:37:35.720Z,29.33
2019-01-20T08:40:04.568Z,30.67
2019-01-20T08:42:32.052Z,29.67
2019-01-20T08:44:59.075Z,28.33
2019-01-20T08:47:42.293Z,27.03
2019-01-20T08:50:12.833Z,28.17
2019-01-20T08:52:39.920Z,26.67
2019-01-20T08:55:07.965Z,26.70
2019-01-20T08:57:35.134Z,25.97
2019-01-20T09:00:03.720Z,26.53
2019-01-20T09:02:30.772Z,26.10
2019-01-20T09:04:57.882Z,25.30
2019-01-20T09:07:25.074Z,24.40
2019-01-20T09:09:52.363Z,25.80
2019-01-20T09:12:19.649Z,24.93
2019-01-20T09:14:47.137Z,22.37
2019-01-20T09:17:14.223Z,23.17
2019-01-20T09:19:41.361Z,23.63
2019-01-20T09:22:09.287Z,22.77
2019-01-20T09:24:36.287Z,21.83
2019-01-20T09:27:03.339Z,21.53
2019-01-20T09:29:30.654Z,22.67
2019-01-20T09:31:57.845Z,23.70
2019-01-20T09:34:25.246Z,21.07
2019-01-20T09:36:52.392Z,23.37
2019-01-20T09:39:20.080Z,23.93
2019-01-20T09:41:47.433Z,23.80
2019-01-20T09:44:14.773Z,22.80
2019-01-20T09:46:42.237Z,23.60
2019-01-20T09:49:09.689Z,23.13
2019-01-20T09:51:36.826Z,22.20
2019-01-20T09:54:04.314Z,22.60
2019-01-20T09:56:35.734Z,22.53
2019-01-20T09:59:05.355Z,22.93
2019-01-20T10:01:32.629Z,23.90
2019-01-20T10:04:00.125Z,23.87
2019-01-20T10:06:27.215Z,24.53
2019-01-20T10:08:54.288Z,25.77
2019-01-20T10:11:22.874Z,25.87
2019-01-20T10:13:54.750Z,25.23
2019-01-20T10:16:19.014Z,27.87
2019-01-20T10:18:46.070Z,27.43
2019-01-20T10:21:13.424Z,27.57
2019-01-20T10:23:40.524Z,25.63
2019-01-20T10:26:07.696Z,26.63
2019-01-20T10:28:35.141Z,25.37
2019-01-20T10:31:02.132Z,27.23
2019-01-20T10:33:29.595Z,27.37
2019-01-20T10:36:06.195Z,26.23
2019-01-20T10:38:37.295Z,26.23
2019-01-20T10:41:03.420Z,25.17
2019-01-20T10:43:30.608Z,26.60
2019-01-20T10:45:57.791Z,25.40
2019-01-20T10:48:25.123Z,24.83
2019-01-20T10:50:52.146Z,25.10
2019-01-20T10:53:19.415Z,23.57
2019-01-20T10:55:46.525Z,22.63
2019-01-20T10:58:14.387Z,22.40
2019-01-20T11:00:41.952Z,21.83
2019-01-20T11:03:09.273Z,22.63
2019-01-20T11:05:36.470Z,23.30
2019-01-20T11:08:03.897Z,22.27
2019-01-20T11:10:31.166Z,21.93
2019-01-20T11:12:58.944Z,23.90
2019-01-20T11:15:26.674Z,23.53
2019-01-20T11:17:53.762Z,23.37
2019-01-20T11:20:21.114Z,23.73
2019-01-20T11:22:48.215Z,22.77
2019-01-20T11:25:18.567Z,20.30
2019-01-20T11:27:45.626Z,20.23
2019-01-20T11:30:13.548Z,18.67
2019-01-20T11:32:42.434Z,20.57
2019-01-20T11:35:11.981Z,19.37
2019-01-20T11:37:39.614Z,19.43
2019-01-20T11:40:08.805Z,19.93
2019-01-20T11:42:35.788Z,21.20
2019-01-20T11:45:04.617Z,19.73
2019-01-20T11:47:31.819Z,20.97
2019-01-20T11:49:58.778Z,20.77
2019-01-20T11:52:25.764Z,20.13
2019-01-20T11:54:53.174Z,21.70
2019-01-20T11:57:20.355Z,21.77
2019-01-20T11:59:47.446Z,22.73
2019-01-20T12:02:14.456Z,24.07
2019-01-20T12:04:41.451Z,22.47
2019-01-20T12:07:08.415Z,23.37
2019-01-20T12:09:35.475Z,24.10
2019-01-20T12:12:02.533Z,23.40
2019-01-20T12:14:29.844Z,23.57
2019-01-20T12:16:57.141Z,24.80
2019-01-20T12:19:24.154Z,24.90
2019-01-20T12:21:51.236Z,24.60
2019-01-20T12:24:19.466Z,24.57
2019-01-20T12:26:46.847Z,24.53
2019-01-20T12:29:14.315Z,23.73
2019-01-20T12:31:41.729Z,23.10
2019-01-20T12:34:09.331Z,21.17
2019-01-20T12:36:36.483Z,23.30
2019-01-20T12:39:07.586Z,24.77
2019-01-20T12:41:35.391Z,22.60
2019-01-20T12:44:02.938Z,23.70
2019-01-20T12:46:29.954Z,24.50
2019-01-20T12:48:57.117Z,23.57
2019-01-20T12:51:28.459Z,24.17
2019-01-20T12:53:53.458Z,23.83
2019-01-20T12:56:20.931Z,21.93
2019-01-20T12:58:48.125Z,22.53
2019-01-20T13:01:15.622Z,23.00
2019-01-20T13:03:43.536Z,25.77
2019-01-20T13:06:10.855Z,23.10
2019-01-20T13:08:38.103Z,25.97
2019-01-20T13:11:05.396Z,26.40
2019-01-20T13:13:32.767Z,24.87
2019-01-20T13:16:00.271Z,23.43
2019-01-20T13:18:27.260Z,23.73
2019-01-20T13:20:54.603Z,24.03
2019-01-20T13:23:21.944Z,24.33
2019-01-20T13:25:49.750Z,25.43
2019-01-20T13:28:18.282Z,25.93
2019-01-20T13:30:45.744Z,24.73
2019-01-20T13:33:12.780Z,24.13
2019-01-20T13:35:40.094Z,26.83
2019-01-20T13:38:10.305Z,24.67
2019-01-20T13:40:58.913Z,24.53
2019-01-20T13:43:26.978Z,24.57
2019-01-20T13:45:54.388Z,25.20
2019-01-20T13:48:21.443Z,23.10
2019-01-20T13:50:48.478Z,24.53
2019-01-20T13:53:15.640Z,21.73
2019-01-20T13:55:42.695Z,22.43
2019-01-20T13:58:09.711Z,22.30
2019-01-20T14:00:36.935Z,22.60
2019-01-20T14:03:04.155Z,21.87
2019-01-20T14:05:31.738Z,22.90
2019-01-20T14:07:58.827Z,24.00
2019-01-20T14:10:26.385Z,23.53
2019-01-20T14:12:53.893Z,21.90
2019-01-20T14:15:20.994Z,22.07
2019-01-20T14:17:48.112Z,22.27
2019-01-20T14:20:17.271Z,21.77
2019-01-20T14:22:45.815Z,21.67
2019-01-20T14:25:14.963Z,21.10
2019-01-20T14:27:42.123Z,23.33
2019-01-20T14:30:14.037Z,23.00
2019-01-20T14:32:41.555Z,23.00
2019-01-20T14:35:09.150Z,20.80
2019-01-20T14:37:36.226Z,24.47
2019-01-20T14:40:04.574Z,23.17
2019-01-20T14:42:31.934Z,23.93
2019-01-20T14:45:01.187Z,24.13
2019-01-20T14:47:28.122Z,22.67
2019-01-20T14:49:55.357Z,23.67
2019-01-20T14:52:22.412Z,23.30
2019-01-20T14:54:49.667Z,23.00
2019-01-20T14:57:16.730Z,23.07
2019-01-20T14:59:43.718Z,24.43
2019-01-20T15:02:10.751Z,23.37
2019-01-20T15:04:37.770Z,24.20
2019-01-20T15:07:04.861Z,24.67
2019-01-20T15:09:31.871Z,22.93
2019-01-20T15:11:59.201Z,23.00
2019-01-20T15:14:26.518Z,23.63
2019-01-20T15:16:53.748Z,23.23
2019-01-20T15:19:21.855Z,24.27
2019-01-20T15:21:49.058Z,23.00
2019-01-20T15:24:16.289Z,24.07
2019-01-20T15:26:43.846Z,24.50
2019-01-20T15:29:10.855Z,25.93
2019-01-20T15:31:38.465Z,25.07
2019-01-20T15:34:05.934Z,25.90
2019-01-20T15:36:33.867Z,25.33
2019-01-20T15:39:01.006Z,24.90
2019-01-20T15:41:28.839Z,25.33
2019-01-20T15:43:55.916Z,25.33
2019-01-20T15:46:23.347Z,25.13
2019-01-20T15:48:50.722Z,25.50
2019-01-20T15:51:17.733Z,25.20
2019-01-20T15:53:47.374Z,24.07
2019-01-20T15:56:14.404Z,23.90
2019-01-20T15:58:42.809Z,23.73
2019-01-20T16:01:10.915Z,27.17
2019-01-20T16:03:37.912Z,25.87
2019-01-20T16:06:05.044Z,26.67
2019-01-20T16:08:32.092Z,25.43
2019-01-20T16:10:59.113Z,26.30
2019-01-20T16:13:26.323Z,25.03
2019-01-20T16:15:53.528Z,23.60
2019-01-20T16:18:20.523Z,23.13
2019-01-20T16:20:47.564Z,25.23
2019-01-20T16:23:14.883Z,27.00
2019-01-20T16:25:42.179Z,26.57
2019-01-20T16:28:10.232Z,22.93
2019-01-20T16:30:38.560Z,24.13
2019-01-20T16:33:06.198Z,23.07
2019-01-20T16:35:33.416Z,22.97
2019-01-20T16:38:01.362Z,23.60
2019-01-20T16:40:28.587Z,22.90
2019-01-20T16:42:55.735Z,23.47
2019-01-20T16:45:32.003Z,22.73
2019-01-20T16:47:55.030Z,23.70
2019-01-20T16:50:22.910Z,23.57
2019-01-20T16:52:54.574Z,25.10
2019-01-20T16:55:19.242Z,23.90
2019-01-20T16:57:46.238Z,23.10
2019-01-20T17:00:16.724Z,23.90
2019-01-20T17:02:43.830Z,23.27
2019-01-20T17:05:11.082Z,21.67
2019-01-20T17:07:38.312Z,24.60
2019-01-20T17:10:12.230Z,24.57
2019-01-20T17:12:40.636Z,26.20
2019-01-20T17:15:09.910Z,23.87
2019-01-20T17:17:36.942Z,24.00
2019-01-20T17:20:05.195Z,24.10
2019-01-20T17:22:33.218Z,24.53
2019-01-20T17:25:00.306Z,23.97
2019-01-20T17:27:27.615Z,23.03
2019-01-20T17:29:54.715Z,23.50
2019-01-20T17:32:22.027Z,24.37
2019-01-20T17:34:49.136Z,24.30
2019-01-20T17:37:16.267Z,24.80
2019-01-20T17:39:43.376Z,24.10
2019-01-20T17:42:10.418Z,24.57
2019-01-20T17:44:38.088Z,25.23
2019-01-20T17:47:05.207Z,24.13
2019-01-20T17:49:32.170Z,25.20
2019-01-20T17:51:59.221Z,23.57
2019-01-20T17:54:26.630Z,24.37
2019-01-20T17:56:54.412Z,24.63
2019-01-20T17:59:21.424Z,23.70
2019-01-20T18:01:48.853Z,24.33
2019-01-20T18:04:15.996Z,23.70
2019-01-20T18:06:43.185Z,25.50
2019-01-20T18:09:10.454Z,26.07
2019-01-20T18:11:37.542Z,26.80
2019-01-20T18:14:04.728Z,25.60
2019-01-20T18:16:31.779Z,25.43
2019-01-20T18:18:58.831Z,26.17
2019-01-20T18:21:27.070Z,24.30
2019-01-20T18:23:54.432Z,26.20
2019-01-20T18:26:21.437Z,25.20
2019-01-20T18:28:48.829Z,25.43
2019-01-20T18:31:16.087Z,24.33
2019-01-20T18:33:43.083Z,24.07
2019-01-20T18:36:10.398Z,26.53
2019-01-20T18:38:38.124Z,24.13
2019-01-20T18:41:05.318Z,25.47
2019-01-20T18:43:32.838Z,24.27
2019-01-20T18:46:01.779Z,24.60
2019-01-20T18:48:28.958Z,24.30
2019-01-20T18:50:55.946Z,24.03
2019-01-20T18:53:23.142Z,24.37
2019-01-20T18:55:50.488Z,23.03
2019-01-20T18:58:17.454Z,22.33
2019-01-20T19:00:47.141Z,23.40
2019-01-20T19:03:15.081Z,24.40
2019-01-20T19:05:42.733Z,22.90
2019-01-20T19:08:10.150Z,23.43
2019-01-20T19:10:37.456Z,22.70
2019-01-20T19:13:04.736Z,25.07
2019-01-20T19:15:32.241Z,22.80
2019-01-20T19:17:59.752Z,23.47
2019-01-20T19:20:27.006Z,24.53
2019-01-20T19:22:55.033Z,22.70
2019-01-20T19:25:22.328Z,23.07
2019-01-20T19:27:49.417Z,23.70
2019-01-20T19:30:19.396Z,22.37
2019-01-20T19:32:46.551Z,24.97
2019-01-20T19:35:14.274Z,23.03
2019-01-20T19:37:41.803Z,24.47
2019-01-20T19:40:09.833Z,26.23
2019-01-20T19:42:37.058Z,24.90
2019-01-20T19:45:05.878Z,25.03
2019-01-20T19:47:33.058Z,24.43
2019-01-20T19:50:00.457Z,25.17
2019-01-20T19:52:27.668Z,24.97
2019-01-20T19:54:55.064Z,26.30
2019-01-20T19:57:22.257Z,25.00
2019-01-20T19:59:49.328Z,25.90
2019-01-20T20:02:16.574Z,25.47
2019-01-20T20:04:43.841Z,26.77
2019-01-20T20:07:11.071Z,26.17
2019-01-20T20:09:38.187Z,27.30
2019-01-20T20:12:05.427Z,28.43
2019-01-20T20:14:33.047Z,27.60
2019-01-20T20:17:00.604Z,27.90
2019-01-20T20:19:28.087Z,27.10
2019-01-20T20:21:55.465Z,26.57
2019-01-20T20:24:25.441Z,26.20
2019-01-20T20:26:51.944Z,24.93
2019-01-20T20:29:19.059Z,25.63
2019-01-20T20:31:46.301Z,25.97
2019-01-20T20:34:13.683Z,27.40
2019-01-20T20:36:41.240Z,25.80
2019-01-20T20:39:08.620Z,27.60
2019-01-20T20:41:36.083Z,26.27
2019-01-20T20:44:03.465Z,25.77
2019-01-20T20:46:31.244Z,25.03
2019-01-20T20:48:58.539Z,26.83
2019-01-20T20:51:25.718Z,25.80
2019-01-20T20:53:53.178Z,24.93
2019-01-20T20:56:20.487Z,25.63
2019-01-20T20:58:47.664Z,25.00
2019-01-20T21:01:14.982Z,25.83
2019-01-20T21:03:42.414Z,24.00
2019-01-20T21:06:09.591Z,25.87
2019-01-20T21:08:36.744Z,25.03
2019-01-20T21:11:04.383Z,25.57
2019-01-20T21:13:32.966Z,25.20
2019-01-20T21:16:00.328Z,26.87
2019-01-20T21:18:27.734Z,24.43
2019-01-20T21:20:55.100Z,26.20
2019-01-20T21:23:22.242Z,25.07
2019-01-20T21:25:49.798Z,24.20
2019-01-20T21:28:17.940Z,24.67
2019-01-20T21:30:45.200Z,26.37
2019-01-20T21:33:12.225Z,26.90
2019-01-20T21:35:39.623Z,26.57
2019-01-20T21:38:07.152Z,26.27
2019-01-20T21:40:34.457Z,26.20
2019-01-20T21:43:01.658Z,24.40
2019-01-20T21:45:29.136Z,24.50
2019-01-20T21:47:56.161Z,25.47
2019-01-20T21:50:28.510Z,25.87
2019-01-20T21:52:55.914Z,25.70
2019-01-20T21:55:23.151Z,25.73
2019-01-20T21:57:51.460Z,27.33
2019-01-20T22:00:20.679Z,24.13
2019-01-20T22:02:48.022Z,26.20
2019-01-20T22:05:15.271Z,25.63
2019-01-20T22:07:42.739Z,25.43
2019-01-20T22:10:15.025Z,23.73
2019-01-20T22:12:42.987Z,25.10
2019-01-20T22:15:10.565Z,24.70
2019-01-20T22:17:38.106Z,25.07
2019-01-20T22:20:07.918Z,26.17
2019-01-20T22:22:35.039Z,27.33
2019-01-20T22:25:02.994Z,25.90
2019-01-20T22:27:30.066Z,27.73
2019-01-20T22:29:57.173Z,25.17
2019-01-20T22:32:24.623Z,27.47
2019-01-20T22:34:51.590Z,27.33
2019-01-20T22:37:18.658Z,25.10
2019-01-20T22:39:45.775Z,27.53
2019-01-20T22:42:13.286Z,27.13
2019-01-20T22:44:40.605Z,27.37
2019-01-20T22:47:08.125Z,27.80
2019-01-20T22:49:35.143Z,29.13
2019-01-20T22:52:02.397Z,26.93
2019-01-20T22:54:29.777Z,27.80
2019-01-20T22:56:56.815Z,27.07
2019-01-20T22:59:24.183Z,26.90
2019-01-20T23:01:51.300Z,28.93
2019-01-20T23:04:19.190Z,28.63
2019-01-20T23:06:46.362Z,27.60
2019-01-20T23:09:13.355Z,26.57
2019-01-20T23:11:40.403Z,26.43
2019-01-20T23:14:07.803Z,27.50
2019-01-20T23:16:34.940Z,27.93
2019-01-20T23:19:02.169Z,27.47
2019-01-20T23:21:29.406Z,28.43
2019-01-20T23:23:56.414Z,28.17
2019-01-20T23:26:24.051Z,26.73
2019-01-20T23:28:51.484Z,26.00
2019-01-20T23:31:18.731Z,26.13
2019-01-20T23:33:46.987Z,25.77
2019-01-20T23:36:13.964Z,27.93
2019-01-20T23:38:41.311Z,28.90
2019-01-20T23:41:08.390Z,27.90
2019-01-20T23:43:35.639Z,28.10
2019-01-20T23:46:02.873Z,27.63
2019-01-20T23:48:30.156Z,27.03
2019-01-20T23:50:57.174Z,27.30
2019-01-20T23:53:24.238Z,26.17
2019-01-20T23:55:51.511Z,27.77
2019-01-20T23:58:19.010Z,29.30
